createdAt,value
2022-10-30T00:00:44.234Z,16.90
2022-10-30T00:02:44.371Z,16.80
2022-10-30T00:04:44.238Z,16.60
2022-10-30T00:06:44.229Z,16.80
2022-10-30T00:08:44.296Z,16.80
2022-10-30T00:10:44.245Z,16.80
2022-10-30T00:12:44.206Z,17.10
2022-10-30T00:14:44.300Z,17.30
2022-10-30T00:16:44.210Z,17.50
2022-10-30T00:18:44.356Z,17.50
2022-10-30T00:20:44.217Z,17.60
2022-10-30T00:22:44.238Z,18.00
2022-10-30T00:24:44.239Z,18.20
2022-10-30T00:26:44.248Z,18.40
2022-10-30T00:28:44.464Z,18.40
2022-10-30T00:30:44.243Z,18.50
2022-10-30T00:32:44.337Z,18.40
2022-10-30T00:34:44.232Z,18.40
2022-10-30T00:36:44.237Z,18.40
2022-10-30T00:38:44.226Z,18.30
2022-10-30T00:40:44.237Z,18.20
2022-10-30T00:42:44.239Z,18.10
2022-10-30T00:44:44.260Z,17.90
2022-10-30T00:46:44.301Z,17.90
2022-10-30T00:48:44.227Z,17.30
2022-10-30T00:50:44.268Z,17.30
2022-10-30T00:52:44.291Z,16.60
2022-10-30T00:54:44.236Z,16.20
2022-10-30T00:56:44.290Z,16.20
2022-10-30T00:58:44.319Z,15.80
2022-10-30T01:01:14.475Z,15.50
2022-10-30T01:03:14.349Z,15.20
2022-10-30T01:05:14.262Z,15.00
2022-10-30T01:07:14.273Z,15.00
2022-10-30T01:09:14.292Z,14.70
2022-10-30T01:11:14.298Z,14.50
2022-10-30T01:13:14.282Z,14.30
2022-10-30T01:15:14.249Z,14.30
2022-10-30T01:17:14.361Z,14.20
2022-10-30T01:19:14.284Z,14.00
2022-10-30T01:21:14.283Z,13.90
2022-10-30T01:23:14.283Z,13.80
2022-10-30T01:25:14.260Z,13.80
2022-10-30T01:27:14.297Z,13.80
2022-10-30T01:29:14.413Z,13.90
2022-10-30T01:31:14.268Z,13.90
2022-10-30T01:33:14.371Z,13.90
2022-10-30T01:35:14.288Z,13.90
2022-10-30T01:37:14.301Z,14.00
2022-10-30T01:39:14.332Z,14.10
2022-10-30T01:41:14.260Z,14.10
2022-10-30T01:43:14.329Z,14.10
2022-10-30T01:45:14.285Z,14.00
2022-10-30T01:47:14.276Z,13.80
2022-10-30T01:49:14.341Z,13.70
2022-10-30T01:51:14.463Z,13.60
2022-10-30T01:53:14.270Z,13.60
2022-10-30T01:55:14.430Z,13.50
2022-10-30T01:57:14.269Z,13.50
2022-10-30T01:59:14.325Z,13.50
2022-10-30T02:01:14.432Z,13.40
2022-10-30T02:03:14.320Z,13.40
2022-10-30T02:05:14.305Z,13.30
2022-10-30T02:07:14.337Z,13.20
2022-10-30T02:09:14.315Z,13.20
2022-10-30T02:11:14.292Z,13.20
2022-10-30T02:13:14.290Z,13.20
2022-10-30T02:15:14.294Z,13.00
2022-10-30T02:17:14.335Z,12.90
2022-10-30T02:19:14.373Z,12.80
2022-10-30T02:21:14.304Z,12.80
2022-10-30T02:23:14.332Z,12.80
2022-10-30T02:25:14.323Z,12.70
2022-10-30T02:27:14.391Z,12.60
2022-10-30T02:29:14.340Z,12.50
2022-10-30T02:31:14.345Z,12.50
2022-10-30T02:33:14.364Z,12.50
2022-10-30T02:35:14.319Z,12.40
2022-10-30T02:37:14.443Z,12.30
2022-10-30T02:39:14.410Z,12.30
2022-10-30T02:41:14.313Z,12.20
2022-10-30T02:43:14.338Z,12.10
2022-10-30T02:45:14.420Z,12.00
2022-10-30T02:47:14.342Z,11.90
2022-10-30T02:49:14.336Z,11.90
2022-10-30T02:51:14.357Z,11.80
2022-10-30T02:53:14.410Z,11.80
2022-10-30T02:57:14.310Z,11.80
2022-10-30T03:01:14.554Z,11.80
2022-10-30T03:03:44.622Z,11.80
2022-10-30T03:07:44.429Z,11.60
2022-10-30T03:11:26.024Z,11.50
2022-10-30T03:13:26.067Z,11.40
2022-10-30T03:15:26.041Z,11.30
2022-10-30T03:17:26.109Z,11.30
2022-10-30T03:19:26.015Z,11.30
2022-10-30T03:21:26.110Z,11.40
2022-10-30T03:23:26.060Z,11.50
2022-10-30T03:25:26.077Z,11.60
2022-10-30T03:27:26.059Z,11.60
2022-10-30T03:29:26.040Z,11.60
2022-10-30T03:31:26.150Z,11.60
2022-10-30T03:33:26.069Z,11.60
2022-10-30T03:35:26.078Z,11.80
2022-10-30T03:37:26.144Z,11.80
2022-10-30T03:39:26.062Z,12.00
2022-10-30T03:41:26.089Z,12.00
2022-10-30T03:43:26.034Z,12.00
2022-10-30T03:45:26.064Z,12.00
2022-10-30T03:47:26.117Z,12.00
2022-10-30T03:49:26.045Z,11.90
2022-10-30T03:51:56.076Z,11.80
2022-10-30T03:53:56.182Z,11.70
2022-10-30T03:55:56.111Z,11.70
2022-10-30T03:57:56.354Z,11.60
2022-10-30T03:59:56.084Z,11.60
2022-10-30T04:01:56.342Z,11.70
2022-10-30T04:03:56.064Z,11.70
2022-10-30T04:05:56.180Z,11.70
2022-10-30T04:07:56.078Z,11.70
2022-10-30T04:09:56.062Z,11.70
2022-10-30T04:11:56.136Z,11.80
2022-10-30T04:13:56.093Z,11.80
2022-10-30T04:15:58.161Z,11.70
2022-10-30T04:17:56.503Z,11.70
2022-10-30T04:19:56.100Z,11.70
2022-10-30T04:21:56.112Z,11.70
2022-10-30T04:23:56.072Z,11.80
2022-10-30T04:25:56.090Z,12.80
2022-10-30T04:27:56.417Z,12.80
2022-10-30T04:29:56.073Z,13.50
2022-10-30T04:31:56.196Z,13.80
2022-10-30T04:33:56.113Z,14.40
2022-10-30T04:35:56.106Z,14.70
2022-10-30T04:37:56.176Z,14.70
2022-10-30T04:39:56.117Z,14.70
2022-10-30T04:41:56.070Z,14.70
2022-10-30T04:43:56.077Z,14.70
2022-10-30T04:45:56.123Z,14.70
2022-10-30T04:47:56.337Z,14.60
2022-10-30T04:49:56.107Z,14.40
2022-10-30T04:51:56.116Z,14.30
2022-10-30T04:53:56.224Z,14.30
2022-10-30T04:55:56.109Z,14.30
2022-10-30T04:57:56.535Z,13.90
2022-10-30T04:59:56.121Z,13.80
2022-10-30T05:01:56.279Z,13.60
2022-10-30T05:03:56.146Z,13.50
2022-10-30T05:05:56.212Z,13.50
2022-10-30T05:07:56.474Z,13.30
2022-10-30T05:09:56.118Z,13.20
2022-10-30T05:11:58.954Z,13.10
2022-10-30T05:13:56.128Z,13.10
2022-10-30T05:15:56.108Z,13.00
2022-10-30T05:17:56.513Z,12.90
2022-10-30T05:19:56.144Z,12.80
2022-10-30T05:21:56.113Z,12.60
2022-10-30T05:23:56.124Z,12.60
2022-10-30T05:25:56.111Z,12.50
2022-10-30T05:27:56.478Z,12.40
2022-10-30T05:29:56.107Z,12.20
2022-10-30T05:31:56.170Z,12.10
2022-10-30T05:33:56.153Z,12.10
2022-10-30T05:35:56.176Z,12.10
2022-10-30T05:37:56.135Z,11.90
2022-10-30T05:39:56.144Z,11.80
2022-10-30T05:41:56.289Z,11.80
2022-10-30T05:43:56.339Z,11.80
2022-10-30T05:45:56.169Z,12.00
2022-10-30T05:47:56.362Z,11.90
2022-10-30T05:49:56.136Z,11.90
2022-10-30T05:51:56.136Z,11.90
2022-10-30T05:54:26.221Z,12.00
2022-10-30T05:56:26.126Z,12.20
2022-10-30T05:58:26.268Z,12.30
2022-10-30T06:00:26.167Z,12.30
2022-10-30T06:02:26.242Z,12.30
2022-10-30T06:04:26.157Z,12.40
2022-10-30T06:06:26.236Z,12.40
2022-10-30T06:08:26.146Z,12.30
2022-10-30T06:10:26.183Z,12.30
2022-10-30T06:12:26.218Z,12.30
2022-10-30T06:14:26.135Z,12.10
2022-10-30T06:16:26.305Z,12.10
2022-10-30T06:18:26.139Z,12.10
2022-10-30T06:20:26.148Z,12.10
2022-10-30T06:22:26.172Z,12.20
2022-10-30T06:24:26.187Z,12.30
2022-10-30T06:26:26.189Z,12.40
2022-10-30T06:28:26.142Z,12.40
2022-10-30T06:30:26.162Z,12.40
2022-10-30T06:32:26.157Z,12.30
2022-10-30T06:34:26.144Z,12.20
2022-10-30T06:36:26.181Z,12.20
2022-10-30T06:38:26.202Z,12.10
2022-10-30T06:40:26.286Z,12.10
2022-10-30T06:42:26.281Z,12.10
2022-10-30T06:44:26.222Z,12.00
2022-10-30T06:46:30.525Z,12.00
2022-10-30T06:48:26.223Z,12.00
2022-10-30T06:50:26.171Z,11.90
2022-10-30T06:52:26.164Z,11.80
2022-10-30T06:54:26.165Z,11.80
2022-10-30T06:56:26.193Z,11.80
2022-10-30T06:58:26.220Z,11.80
2022-10-30T07:00:26.208Z,11.80
2022-10-30T07:02:26.319Z,11.90
2022-10-30T07:04:26.188Z,11.90
2022-10-30T07:06:26.293Z,11.90
2022-10-30T07:08:26.253Z,11.90
2022-10-30T07:10:26.194Z,11.90
2022-10-30T07:12:26.428Z,11.90
2022-10-30T07:14:26.220Z,11.90
2022-10-30T07:16:26.344Z,11.90
2022-10-30T07:18:26.174Z,12.00
2022-10-30T07:20:26.231Z,12.00
2022-10-30T07:22:26.213Z,12.10
2022-10-30T07:24:26.234Z,12.20
2022-10-30T07:26:26.509Z,12.20
2022-10-30T07:28:26.227Z,12.20
2022-10-30T07:32:26.193Z,12.20
2022-10-30T07:34:26.203Z,12.10
2022-10-30T07:36:26.239Z,12.10
2022-10-30T07:38:26.245Z,12.10
2022-10-30T07:40:26.208Z,12.20
2022-10-30T07:42:26.197Z,12.40
2022-10-30T07:44:26.227Z,12.40
2022-10-30T07:46:26.283Z,12.50
2022-10-30T07:48:26.265Z,12.70
2022-10-30T07:50:26.283Z,12.80
2022-10-30T07:52:27.344Z,12.80
2022-10-30T07:54:26.319Z,12.80
2022-10-30T07:56:56.346Z,12.90
2022-10-30T07:58:56.353Z,12.90
2022-10-30T08:00:56.337Z,13.00
2022-10-30T08:02:56.627Z,13.00
2022-10-30T08:04:56.313Z,13.20
2022-10-30T08:06:56.305Z,13.40
2022-10-30T08:08:56.276Z,13.40
2022-10-30T08:10:56.252Z,13.60
2022-10-30T08:12:56.381Z,13.70
2022-10-30T08:14:56.364Z,13.70
2022-10-30T08:16:56.359Z,13.70
2022-10-30T08:18:56.231Z,13.70
2022-10-30T08:20:56.235Z,13.80
2022-10-30T08:22:56.572Z,13.90
2022-10-30T08:24:56.515Z,14.00
2022-10-30T08:26:56.237Z,14.00
2022-10-30T08:28:56.224Z,14.20
2022-10-30T08:30:56.294Z,14.60
2022-10-30T08:32:56.688Z,14.90
2022-10-30T08:34:56.263Z,15.00
2022-10-30T08:36:56.343Z,15.00
2022-10-30T08:38:56.306Z,15.10
2022-10-30T08:40:56.356Z,15.20
2022-10-30T08:42:56.380Z,15.20
2022-10-30T08:44:56.413Z,15.20
2022-10-30T08:46:56.274Z,15.20
2022-10-30T08:48:56.432Z,15.20
2022-10-30T08:50:56.244Z,15.30
2022-10-30T08:52:56.640Z,15.40
2022-10-30T08:54:56.275Z,15.40
2022-10-30T08:56:56.363Z,15.40
2022-10-30T08:58:56.396Z,15.40
2022-10-30T09:01:01.222Z,15.70
2022-10-30T09:02:56.918Z,15.90
2022-10-30T09:04:56.339Z,15.90
2022-10-30T09:06:56.322Z,16.10
2022-10-30T09:08:56.274Z,16.30
2022-10-30T09:10:56.383Z,16.50
2022-10-30T09:12:56.254Z,16.50
2022-10-30T09:14:56.281Z,16.50
2022-10-30T09:16:56.371Z,16.90
2022-10-30T09:18:56.293Z,17.10
2022-10-30T09:20:56.344Z,17.20
2022-10-30T09:22:56.827Z,17.20
2022-10-30T09:24:56.382Z,17.30
2022-10-30T09:26:56.457Z,17.60
2022-10-30T09:28:56.401Z,18.00
2022-10-30T09:30:56.471Z,18.50
2022-10-30T09:32:56.678Z,18.50
2022-10-30T09:34:56.426Z,19.20
2022-10-30T09:36:56.390Z,19.90
2022-10-30T09:38:56.371Z,19.90
2022-10-30T09:40:56.456Z,21.60
2022-10-30T09:42:56.410Z,21.60
2022-10-30T09:45:15.330Z,22.30
2022-10-30T09:46:56.361Z,22.60
2022-10-30T09:48:56.343Z,23.00
2022-10-30T09:50:56.377Z,23.00
2022-10-30T09:52:56.536Z,23.40
2022-10-30T09:54:56.437Z,24.00
2022-10-30T09:57:01.147Z,24.50
2022-10-30T09:58:56.481Z,24.80
2022-10-30T10:01:26.616Z,24.80
2022-10-30T10:03:26.532Z,25.20
2022-10-30T10:05:26.322Z,25.50
2022-10-30T10:07:26.567Z,25.90
2022-10-30T10:09:26.423Z,26.10
2022-10-30T10:11:26.460Z,26.10
2022-10-30T10:13:26.429Z,26.00
2022-10-30T10:15:26.518Z,26.20
2022-10-30T10:17:26.539Z,26.80
2022-10-30T10:19:26.494Z,26.80
2022-10-30T10:21:26.580Z,26.80
2022-10-30T10:23:26.439Z,26.90
2022-10-30T10:25:26.500Z,27.20
2022-10-30T10:27:26.530Z,27.90
2022-10-30T10:31:08.928Z,28.80
2022-10-30T10:33:08.994Z,29.50
2022-10-30T10:35:08.955Z,30.00
2022-10-30T10:37:08.970Z,29.90
2022-10-30T10:39:08.874Z,29.90
2022-10-30T10:41:08.893Z,30.30
2022-10-30T10:43:08.912Z,29.90
2022-10-30T10:45:08.921Z,29.60
2022-10-30T10:47:08.923Z,29.60
2022-10-30T10:49:08.968Z,29.20
2022-10-30T10:51:08.983Z,28.60
2022-10-30T10:53:08.970Z,28.20
2022-10-30T10:55:38.919Z,28.00
2022-10-30T10:57:39.021Z,28.40
2022-10-30T10:59:38.940Z,28.40
2022-10-30T11:01:39.059Z,28.40
2022-10-30T11:03:38.963Z,28.40
2022-10-30T11:05:38.987Z,27.10
2022-10-30T11:07:39.007Z,26.80
2022-10-30T11:09:38.931Z,26.80
2022-10-30T11:11:39.013Z,26.80
2022-10-30T11:13:38.886Z,27.40
2022-10-30T11:15:38.943Z,27.30
2022-10-30T11:17:38.979Z,27.30
2022-10-30T11:19:38.995Z,27.30
2022-10-30T11:21:39.112Z,27.20
2022-10-30T11:23:39.009Z,27.10
2022-10-30T11:25:38.887Z,27.30
2022-10-30T11:27:39.037Z,27.90
2022-10-30T11:29:38.879Z,27.90
2022-10-30T11:31:39.005Z,28.40
2022-10-30T11:33:38.962Z,28.70
2022-10-30T11:35:39.013Z,28.10
2022-10-30T11:37:39.001Z,28.10
2022-10-30T11:39:39.026Z,28.10
2022-10-30T11:41:38.913Z,28.10
2022-10-30T11:43:38.911Z,28.50
2022-10-30T11:45:38.946Z,29.00
2022-10-30T11:47:38.978Z,29.00
2022-10-30T11:49:39.003Z,29.00
2022-10-30T11:51:39.027Z,28.30
2022-10-30T11:53:39.026Z,28.30
2022-10-30T11:55:39.061Z,28.70
2022-10-30T11:57:38.947Z,28.70
2022-10-30T11:59:39.062Z,28.90
2022-10-30T12:01:39.156Z,29.10
2022-10-30T12:03:38.990Z,28.60
2022-10-30T12:05:39.016Z,28.60
2022-10-30T12:07:39.021Z,28.60
2022-10-30T12:09:39.008Z,28.80
2022-10-30T12:11:38.943Z,28.80
2022-10-30T12:13:39.076Z,29.00
2022-10-30T12:15:39.082Z,29.00
2022-10-30T12:17:39.127Z,28.90
2022-10-30T12:19:38.979Z,27.90
2022-10-30T12:21:39.022Z,27.90
2022-10-30T12:23:39.032Z,27.40
2022-10-30T12:25:39.107Z,27.40
2022-10-30T12:27:39.001Z,27.70
2022-10-30T12:30:02.595Z,27.80
2022-10-30T12:31:38.999Z,27.40
2022-10-30T12:33:38.997Z,26.60
2022-10-30T12:35:39.008Z,26.60
2022-10-30T12:37:39.059Z,27.00
2022-10-30T12:39:39.005Z,27.60
2022-10-30T12:41:39.047Z,27.80
2022-10-30T12:43:39.093Z,28.00
2022-10-30T12:45:39.104Z,28.00
2022-10-30T12:47:38.999Z,27.90
2022-10-30T12:49:39.021Z,26.90
2022-10-30T12:51:39.068Z,27.00
2022-10-30T12:53:39.075Z,27.00
2022-10-30T12:55:39.047Z,27.20
2022-10-30T12:57:39.065Z,27.60
2022-10-30T12:59:39.109Z,27.40
2022-10-30T13:02:09.168Z,27.40
2022-10-30T13:04:09.012Z,27.40
2022-10-30T13:06:09.066Z,26.80
2022-10-30T13:08:09.041Z,26.70
2022-10-30T13:10:09.092Z,26.70
2022-10-30T13:12:09.082Z,26.70
2022-10-30T13:14:09.081Z,26.70
2022-10-30T13:16:09.123Z,26.70
2022-10-30T13:18:09.120Z,26.90
2022-10-30T13:20:09.079Z,27.00
2022-10-30T13:22:09.077Z,27.00
2022-10-30T13:24:09.049Z,27.10
2022-10-30T13:26:09.093Z,27.10
2022-10-30T13:28:09.081Z,26.60
2022-10-30T13:30:09.032Z,26.30
2022-10-30T13:32:09.031Z,26.30
2022-10-30T13:34:08.996Z,26.10
2022-10-30T13:36:09.041Z,25.90
2022-10-30T13:38:09.056Z,25.60
2022-10-30T13:40:09.088Z,25.50
2022-10-30T13:42:09.161Z,25.50
2022-10-30T13:44:09.104Z,25.50
2022-10-30T13:46:09.171Z,25.20
2022-10-30T13:48:09.117Z,25.00
2022-10-30T13:50:09.179Z,25.00
2022-10-30T13:52:09.104Z,24.70
2022-10-30T13:54:09.062Z,24.60
2022-10-30T13:56:09.130Z,24.50
2022-10-30T13:58:09.049Z,24.30
2022-10-30T14:00:09.125Z,24.30
2022-10-30T14:02:09.100Z,24.10
2022-10-30T14:04:09.148Z,24.00
2022-10-30T14:06:09.061Z,23.90
2022-10-30T14:08:09.100Z,23.60
2022-10-30T14:10:09.100Z,23.60
2022-10-30T14:12:09.131Z,23.60
2022-10-30T14:14:09.091Z,23.60
2022-10-30T14:16:09.110Z,23.50
2022-10-30T14:18:09.163Z,23.50
2022-10-30T14:20:14.087Z,23.60
2022-10-30T14:22:09.064Z,23.50
2022-10-30T14:24:09.061Z,23.50
2022-10-30T14:26:09.094Z,23.30
2022-10-30T14:28:09.133Z,23.30
2022-10-30T14:30:09.050Z,23.20
2022-10-30T14:32:09.148Z,23.10
2022-10-30T14:34:09.164Z,23.00
2022-10-30T14:36:09.072Z,22.80
2022-10-30T14:38:09.068Z,22.80
2022-10-30T14:40:09.125Z,22.80
2022-10-30T14:42:09.153Z,22.60
2022-10-30T14:44:09.128Z,22.60
2022-10-30T14:46:09.139Z,22.50
2022-10-30T14:48:09.196Z,22.50
2022-10-30T14:50:09.168Z,22.30
2022-10-30T14:52:09.085Z,22.20
2022-10-30T14:54:11.943Z,22.10
2022-10-30T14:56:09.268Z,22.10
2022-10-30T14:58:09.107Z,21.90
2022-10-30T15:00:09.142Z,21.80
2022-10-30T15:02:09.220Z,21.50
2022-10-30T15:04:09.186Z,21.50
2022-10-30T15:06:09.194Z,21.50
2022-10-30T15:08:39.240Z,20.70
2022-10-30T15:10:39.174Z,20.70
2022-10-30T15:12:39.132Z,20.40
2022-10-30T15:14:52.994Z,20.30
2022-10-30T15:16:39.169Z,20.00
2022-10-30T15:18:39.417Z,20.00
2022-10-30T15:20:39.232Z,19.80
2022-10-30T15:22:39.205Z,19.60
2022-10-30T15:24:39.274Z,19.30
2022-10-30T15:26:39.214Z,19.10
2022-10-30T15:28:39.258Z,19.10
2022-10-30T15:30:41.843Z,19.00
2022-10-30T15:32:39.172Z,18.80
2022-10-30T15:34:39.207Z,18.70
2022-10-30T15:36:39.105Z,18.60
2022-10-30T15:38:39.240Z,18.60
2022-10-30T15:40:39.176Z,18.40
2022-10-30T15:42:39.122Z,18.30
2022-10-30T15:44:39.158Z,18.30
2022-10-30T15:46:39.164Z,18.00
2022-10-30T15:48:39.213Z,18.00
2022-10-30T15:50:39.193Z,17.90
2022-10-30T15:52:39.323Z,17.80
2022-10-30T15:54:39.257Z,17.60
2022-10-30T15:56:59.799Z,17.60
2022-10-30T15:58:39.180Z,17.50
2022-10-30T16:00:39.172Z,17.40
2022-10-30T16:02:39.299Z,17.30
2022-10-30T16:04:39.279Z,17.20
2022-10-30T16:06:39.242Z,17.20
2022-10-30T16:08:39.268Z,17.10
2022-10-30T16:10:39.254Z,17.00
2022-10-30T16:12:39.197Z,17.00
2022-10-30T16:14:39.183Z,17.00
2022-10-30T16:16:39.235Z,17.00
2022-10-30T16:18:39.267Z,16.90
2022-10-30T16:20:39.248Z,16.90
2022-10-30T16:22:39.230Z,16.80
2022-10-30T16:24:39.287Z,16.80
2022-10-30T16:26:39.251Z,16.80
2022-10-30T16:28:39.173Z,16.70
2022-10-30T16:30:39.171Z,16.60
2022-10-30T16:32:39.271Z,16.60
2022-10-30T16:34:39.252Z,16.60
2022-10-30T16:36:39.287Z,16.50
2022-10-30T16:38:39.283Z,16.40
2022-10-30T16:40:39.300Z,16.30
2022-10-30T16:42:39.209Z,16.40
2022-10-30T16:44:39.240Z,16.40
2022-10-30T16:46:39.233Z,16.40
2022-10-30T16:48:39.258Z,16.50
2022-10-30T16:50:39.233Z,16.50
2022-10-30T16:52:39.285Z,16.50
2022-10-30T16:54:39.264Z,16.50
2022-10-30T16:56:40.025Z,16.50
2022-10-30T16:58:39.167Z,16.40
2022-10-30T17:00:39.320Z,16.50
2022-10-30T17:02:39.276Z,16.50
2022-10-30T17:04:39.234Z,16.60
2022-10-30T17:06:39.292Z,16.60
2022-10-30T17:08:39.287Z,16.60
2022-10-30T17:10:39.393Z,16.50
2022-10-30T17:12:39.335Z,16.50
2022-10-30T17:15:09.254Z,16.50
2022-10-30T17:17:09.234Z,16.50
2022-10-30T17:19:09.224Z,16.50
2022-10-30T17:21:09.291Z,16.50
2022-10-30T17:23:09.280Z,16.40
2022-10-30T17:25:09.284Z,16.40
2022-10-30T17:28:49.703Z,16.30
2022-10-30T17:30:49.712Z,16.30
2022-10-30T17:32:49.733Z,16.20
2022-10-30T17:34:49.732Z,16.20
2022-10-30T17:36:49.730Z,16.10
2022-10-30T17:38:49.742Z,16.10
2022-10-30T17:40:49.735Z,16.10
2022-10-30T17:42:49.796Z,16.10
2022-10-30T17:44:49.668Z,16.00
2022-10-30T17:46:49.746Z,16.00
2022-10-30T17:48:49.733Z,15.70
2022-10-30T17:50:49.727Z,15.70
2022-10-30T17:52:49.760Z,15.60
2022-10-30T17:54:49.797Z,15.40
2022-10-30T17:57:19.672Z,15.30
2022-10-30T17:59:19.909Z,15.30
2022-10-30T18:01:19.789Z,15.20
2022-10-30T18:03:19.707Z,15.00
2022-10-30T18:05:19.767Z,14.90
2022-10-30T18:07:19.757Z,14.70
2022-10-30T18:09:19.781Z,14.70
2022-10-30T18:11:19.740Z,14.50
2022-10-30T18:13:19.770Z,14.40
2022-10-30T18:15:19.707Z,14.30
2022-10-30T18:17:19.767Z,14.30
2022-10-30T18:19:19.741Z,14.30
2022-10-30T18:21:19.741Z,14.30
2022-10-30T18:23:31.865Z,14.40
2022-10-30T18:25:19.774Z,14.30
2022-10-30T18:27:19.646Z,14.30
2022-10-30T18:29:19.663Z,14.30
2022-10-30T18:31:20.015Z,14.50
2022-10-30T18:33:19.738Z,14.50
2022-10-30T18:35:19.790Z,14.60
2022-10-30T18:37:19.759Z,14.60
2022-10-30T18:39:19.779Z,14.80
2022-10-30T18:41:19.716Z,14.80
2022-10-30T18:43:19.778Z,15.00
2022-10-30T18:45:19.742Z,15.00
2022-10-30T18:47:19.762Z,15.00
2022-10-30T18:49:19.741Z,15.00
2022-10-30T18:51:19.745Z,15.00
2022-10-30T18:53:19.761Z,15.00
2022-10-30T18:55:19.771Z,15.00
2022-10-30T18:57:19.724Z,15.00
2022-10-30T18:59:19.872Z,14.90
2022-10-30T19:01:19.831Z,15.00
2022-10-30T19:03:19.760Z,15.00
2022-10-30T19:05:19.798Z,15.00
2022-10-30T19:07:19.844Z,14.90
2022-10-30T19:09:19.771Z,14.90
2022-10-30T19:11:24.150Z,15.00
2022-10-30T19:13:20.109Z,14.80
2022-10-30T19:15:19.687Z,14.80
2022-10-30T19:17:19.763Z,14.80
2022-10-30T19:19:19.760Z,14.70
2022-10-30T19:21:19.794Z,14.60
2022-10-30T19:23:19.792Z,14.60
2022-10-30T19:25:19.823Z,14.60
2022-10-30T19:27:19.735Z,14.60
2022-10-30T19:29:19.829Z,14.60
2022-10-30T19:31:19.763Z,14.50
2022-10-30T19:33:19.846Z,14.50
2022-10-30T19:35:19.777Z,14.40
2022-10-30T19:37:19.775Z,14.40
2022-10-30T19:39:19.814Z,14.30
2022-10-30T19:41:19.876Z,14.10
2022-10-30T19:43:19.845Z,14.10
2022-10-30T19:45:19.849Z,14.00
2022-10-30T19:47:19.748Z,13.90
2022-10-30T19:49:19.812Z,13.90
2022-10-30T19:51:19.778Z,13.90
2022-10-30T19:53:19.863Z,13.90
2022-10-30T19:55:19.825Z,13.90
2022-10-30T19:57:19.837Z,13.80
2022-10-30T19:59:19.733Z,13.80
2022-10-30T20:01:50.021Z,13.60
2022-10-30T20:03:49.755Z,13.60
2022-10-30T20:05:49.781Z,13.60
2022-10-30T20:07:49.862Z,13.60
2022-10-30T20:09:49.898Z,13.60
2022-10-30T20:11:49.922Z,13.60
2022-10-30T20:13:52.183Z,13.50
2022-10-30T20:15:49.863Z,13.50
2022-10-30T20:17:49.746Z,13.40
2022-10-30T20:19:49.813Z,13.40
2022-10-30T20:21:49.826Z,13.30
2022-10-30T20:23:49.927Z,13.30
2022-10-30T20:25:49.858Z,13.20
2022-10-30T20:27:49.809Z,13.20
2022-10-30T20:29:49.849Z,13.20
2022-10-30T20:31:49.892Z,13.20
2022-10-30T20:33:49.794Z,13.20
2022-10-30T20:35:49.821Z,13.20
2022-10-30T20:37:49.825Z,13.30
2022-10-30T20:39:49.841Z,13.40
2022-10-30T20:41:49.900Z,13.40
2022-10-30T20:43:49.945Z,13.40
2022-10-30T20:45:49.815Z,13.40
2022-10-30T20:47:49.842Z,13.40
2022-10-30T20:49:49.860Z,13.40
2022-10-30T20:51:49.824Z,13.50
2022-10-30T20:53:49.855Z,13.50
2022-10-30T20:55:49.885Z,13.50
2022-10-30T20:57:49.871Z,13.50
2022-10-30T20:59:49.791Z,13.50
2022-10-30T21:01:50.076Z,13.50
2022-10-30T21:03:49.827Z,13.40
2022-10-30T21:05:49.921Z,13.40
2022-10-30T21:07:49.861Z,13.40
2022-10-30T21:09:49.902Z,13.40
2022-10-30T21:11:49.848Z,13.40
2022-10-30T21:13:49.865Z,13.20
2022-10-30T21:15:49.775Z,13.20
2022-10-30T21:17:49.951Z,13.20
2022-10-30T21:19:49.825Z,13.20
2022-10-30T21:21:49.917Z,13.20
2022-10-30T21:23:49.851Z,13.20
2022-10-30T21:25:49.929Z,13.20
2022-10-30T21:27:49.816Z,13.20
2022-10-30T21:29:49.905Z,13.20
2022-10-30T21:31:49.832Z,13.10
2022-10-30T21:33:49.798Z,13.00
2022-10-30T21:35:49.898Z,12.90
2022-10-30T21:37:49.877Z,12.80
2022-10-30T21:39:49.843Z,12.80
2022-10-30T21:41:49.876Z,12.80
2022-10-30T21:43:49.911Z,12.80
2022-10-30T21:45:49.910Z,12.80
2022-10-30T21:47:49.826Z,12.80
2022-10-30T21:49:49.805Z,12.80
2022-10-30T21:51:49.951Z,12.80
2022-10-30T21:53:49.848Z,12.90
2022-10-30T21:55:49.873Z,13.10
2022-10-30T21:57:49.900Z,13.10
2022-10-30T21:59:49.884Z,13.20
2022-10-30T22:01:49.903Z,13.20
2022-10-30T22:03:49.933Z,13.20
2022-10-30T22:06:19.884Z,13.20
2022-10-30T22:08:19.853Z,13.20
2022-10-30T22:10:19.826Z,13.20
2022-10-30T22:12:19.896Z,13.20
2022-10-30T22:14:19.928Z,13.00
2022-10-30T22:16:20.062Z,13.00
2022-10-30T22:18:19.827Z,13.00
2022-10-30T22:20:19.872Z,13.00
2022-10-30T22:22:19.803Z,13.00
2022-10-30T22:24:19.828Z,13.20
2022-10-30T22:26:19.951Z,13.20
2022-10-30T22:28:19.800Z,13.30
2022-10-30T22:30:19.819Z,13.40
2022-10-30T22:32:19.914Z,13.40
2022-10-30T22:34:19.954Z,13.60
2022-10-30T22:36:19.815Z,13.60
2022-10-30T22:38:19.853Z,13.60
2022-10-30T22:40:19.831Z,13.40
2022-10-30T22:42:19.820Z,12.90
2022-10-30T22:44:19.858Z,12.60
2022-10-30T22:46:19.837Z,12.60
2022-10-30T22:48:19.820Z,12.30
2022-10-30T22:50:19.864Z,12.10
2022-10-30T22:52:19.846Z,12.00
2022-10-30T22:54:19.871Z,12.00
2022-10-30T22:56:19.877Z,12.00
2022-10-30T22:58:19.839Z,12.00
2022-10-30T23:00:19.878Z,12.00
2022-10-30T23:02:19.880Z,12.00
2022-10-30T23:04:19.879Z,12.00
2022-10-30T23:06:19.875Z,12.00
2022-10-30T23:08:19.920Z,11.90
2022-10-30T23:10:19.854Z,11.90
2022-10-30T23:12:19.930Z,11.90
2022-10-30T23:14:19.851Z,11.90
2022-10-30T23:16:19.851Z,11.70
2022-10-30T23:18:19.982Z,11.60
2022-10-30T23:20:19.899Z,11.50
2022-10-30T23:22:19.862Z,11.30
2022-10-30T23:24:19.887Z,11.30
2022-10-30T23:26:19.881Z,11.20
2022-10-30T23:28:19.896Z,11.10
2022-10-30T23:30:19.844Z,11.20
2022-10-30T23:32:19.890Z,11.20
2022-10-30T23:34:19.885Z,11.60
2022-10-30T23:36:19.854Z,11.60
2022-10-30T23:38:19.901Z,11.60
2022-10-30T23:40:19.905Z,11.60
2022-10-30T23:42:19.878Z,11.60
2022-10-30T23:44:19.917Z,11.40
2022-10-30T23:46:19.947Z,11.30
2022-10-30T23:48:19.854Z,11.10
2022-10-30T23:50:19.861Z,11.00
2022-10-30T23:52:19.959Z,11.00
2022-10-30T23:54:19.877Z,11.00
2022-10-30T23:56:19.881Z,11.00
2022-10-30T23:58:20.009Z,11.00
